• Join FlightAware (Why Join?)
  • Login
  • US Flag 
03:11AM EST


 

Airport Tracker/Info


-or-


 

Live Flight TrackerFlight Track Log ✈ UAL326 ✈ 04-Jul-2013 ✈ KMCO - KIAD

Flight Track Log - Related Links

Times and Time Zones

All times are in EDT time to prevent confusion due to time zone crossing. See the UAL326 flight status page for this flight to view local times or setup timezone preferences in your user account.

Time Position Orientation Groundspeed Altitude Reporting Facility
EDT Latitude Longitude Course Direction KTS MPH feet Rate Location/Type
01:57PM 28.4167 -81.3167 North 149 171 900  Level Orlando TRACON
01:59PM 28.3833 -81.2667 127° Southeast 212 244 3,000 2,340 Climbing Orlando TRACON
02:00PM 28.7550 -81.3500 North  Level FlightAware Approximate
02:00PM 28.3667 -81.2000 106° East 233 268 6,400  Level Orlando TRACON
02:01PM 28.8710 -81.3538 355° North  Level FlightAware Approximate
02:01PM 28.4500 -81.2000 360° North 321 369 8,600  Level Orlando TRACON
02:02PM 28.9866 -81.3653 355° North  Level FlightAware Approximate
02:03PM 29.1014 -81.3833 North  Level FlightAware Approximate
02:03PM 28.5922 -81.2400 346° North 343 395 11,600  Level Jacksonville Center
02:04PM 28.6989 -81.2689 347° North 365 420 14,100 2,400 Climbing Jacksonville Center
02:05PM 28.8058 -81.3003 346° North 384 442 16,500 2,100 Climbing Jacksonville Center
02:06PM 28.9106 -81.3342 344° North 384 442 18,300 1,800 Climbing Jacksonville Center
02:07PM 29.0194 -81.3681 345° North 395 455 20,100 1,620 Climbing Jacksonville Center
02:08PM 29.1325 -81.3903 350° North 401 461 21,600 1,020 Climbing Jacksonville Center
02:09PM 29.2536 -81.4025 355° North 422 486 22,200 1,380 Climbing Jacksonville Center
02:10PM 29.3831 -81.4056 359° North 440 506 24,400 2,040 Climbing Jacksonville Center
02:11PM 29.5253 -81.4319 351° North 459 528 26,300 1,740 Climbing Jacksonville Center
02:12PM 29.6569 -81.4467 354° North 466 536 27,900 1,500 Climbing Jacksonville Center
02:13PM 29.7867 -81.4592 355° North 466 536 29,300 1,200 Climbing Jacksonville Center
02:14PM 29.9142 -81.4692 356° North 466 536 30,400 1,080 Climbing Jacksonville Center
02:15PM 30.0417 -81.4817 355° North 466 536 31,500 1,200 Climbing Jacksonville Center
02:16PM 30.1544 -81.4919 355° North 460 529 32,800 1,140 Climbing Jacksonville Center
02:17PM 30.2819 -81.5047 355° North 460 529 33,800 1,020 Climbing Jacksonville Center
02:18PM 30.4050 -81.5028 North 455 524 34,900 600 Climbing Jacksonville Center
02:19PM 30.5303 -81.4939 North 450 518 35,000  Climbing Jacksonville Center
02:20PM 30.6533 -81.4847 North 445 512 35,000  Level Jacksonville Center
02:21PM 30.7764 -81.4756 North 440 506 35,000  Level Jacksonville Center
02:22PM 30.8972 -81.4472 11° North 440 506 35,000  Level Jacksonville Center
02:23PM 31.0092 -81.3778 28° Northeast 440 506 35,000  Level Jacksonville Center
02:24PM 31.1189 -81.2983 32° Northeast 445 512 35,000 360 Level Jacksonville Center
02:25PM 31.2286 -81.2211 31° Northeast 450 518 35,800 900 Climbing Jacksonville Center
02:26PM 31.3464 -81.1339 32° Northeast 456 525 36,800 600 Climbing Jacksonville Center
02:27PM 31.4539 -81.0611 30° Northeast 451 519 37,000 60 Climbing Jacksonville Center
02:28PM 31.5531 -80.9908 31° Northeast 446 513 37,000  Level Jacksonville Center
02:29PM 31.6731 -80.9103 30° Northeast 446 513 37,000 -60 Level Jacksonville Center
02:30PM 31.7700 -80.8400 32° Northeast 446 513 36,900  Descending Jacksonville Center
02:31PM 31.8856 -80.7567 31° Northeast 446 513 37,000  Climbing Jacksonville Center
02:32PM 31.9969 -80.6806 30° Northeast 446 513 37,000  Level Jacksonville Center
02:33PM 32.0939 -80.6144 30° Northeast 441 507 37,000 -60 Level Jacksonville Center
02:34PM 32.2011 -80.5381 31° Northeast 441 507 36,900 -60 Descending Jacksonville Center
02:35PM 32.3061 -80.4617 32° Northeast 441 507 36,900  Level Jacksonville Center
02:36PM 32.4131 -80.3825 32° Northeast 441 507 36,900  Level Jacksonville Center
02:37PM 32.5200 -80.3056 31° Northeast 441 507 37,000  Climbing Jacksonville Center
02:38PM 32.6269 -80.2311 30° Northeast 441 507 36,900 -60 Descending Jacksonville Center
02:39PM 32.7319 -80.1539 32° Northeast 441 507 36,900  Level Jacksonville Center
02:40PM 32.8322 -80.0669 36° Northeast 441 507 36,900  Level Jacksonville Center
02:41PM 32.9325 -79.9769 37° Northeast 447 514 36,900  Level Jacksonville Center
02:42PM 33.0347 -79.8819 38° Northeast 452 520 37,000  Climbing Jacksonville Center
02:43PM 33.1347 -79.7944 36° Northeast 452 520 36,900 -60 Descending Jacksonville Center
02:44PM 33.2347 -79.7039 37° Northeast 452 520 36,900  Level Jacksonville Center
02:45PM 33.3450 -79.6081 36° Northeast 447 514 36,900  Level Jacksonville Center
02:46PM 33.4450 -79.5197 36° Northeast 447 514 36,900  Level Jacksonville Center
02:47PM 33.5469 -79.4336 35° Northeast 447 514 36,900  Level Jacksonville Center
02:48PM 33.6489 -79.3497 34° Northeast 447 514 36,900  Level Jacksonville Center
02:49PM 33.7389 -79.2864 30° Northeast 432 497 36,900  Level Jacksonville Center
02:50PM 33.8519 -79.2292 23° Northeast 427 491 36,900  Level Jacksonville Center
02:51PM 33.9758 -79.1814 18° North 440 506 36,900  Level Jacksonville Center
02:52PM 34.0975 -79.1336 18° North 447 514 37,000  Climbing Jacksonville Center
02:53PM 34.2233 -79.0878 17° North 460 529 37,000  Level Jacksonville Center
02:55PM 34.4803 -78.9956 16° North 455 524 37,000  Level Washington Center
02:56PM 34.6067 -78.9456 18° North 468 539 37,000  Level Washington Center
02:57PM 34.7333 -78.8975 17° North 468 539 37,000  Level Washington Center
02:58PM 34.8597 -78.8494 17° North 468 539 37,000  Level Washington Center
02:59PM 34.9883 -78.8042 16° North 468 539 37,000  Level Washington Center
03:00PM 35.1147 -78.7583 17° North 468 539 37,000  Level Washington Center
03:01PM 35.2392 -78.7122 17° North 468 539 37,000  Level Washington Center
03:02PM 35.3783 -78.6464 21° North 474 545 37,000  Level Washington Center
03:03PM 35.4994 -78.5694 27° Northeast 477 549 37,000  Level Washington Center
03:04PM 35.6261 -78.5025 23° Northeast 477 549 37,000 -300 Level Washington Center
03:05PM 35.7469 -78.4278 27° Northeast 483 556 36,500 -780 Descending Washington Center
03:06PM 35.8675 -78.3575 25° Northeast 478 550 35,500 -1,920 Descending Washington Center
03:07PM 35.9922 -78.2850 25° Northeast 478 550 32,700 -2,520 Descending Washington Center
03:08PM 36.1189 -78.2200 23° Northeast 483 556 30,500 -2,220 Descending Washington Center
03:09PM 36.2489 -78.1856 12° North 482 555 28,400 -1,800 Descending Washington Center
03:10PM 36.3750 -78.1483 13° North 472 543 26,900 -720 Descending Washington Center
03:11PM 36.4800 -78.1208 12° North 450 518 27,000  Climbing Washington Center
03:12PM 36.5953 -78.0911 12° North 430 495 27,000 -300 Level Washington Center
03:13PM 36.7108 -78.0583 13° North 424 488 26,400 -840 Descending Washington Center
03:14PM 36.8261 -78.0258 13° North 419 482 25,400 -1,020 Descending Washington Center
03:15PM 36.9383 -78.0422 353° North 409 471 24,400 -960 Descending Washington Center
03:16PM 37.0486 -78.0589 353° North 398 458 23,500 -720 Descending Washington Center
03:17PM 37.1569 -78.0728 354° North 398 458 23,000 -300 Descending Washington Center
03:18PM 37.2672 -78.0867 354° North 398 458 23,000  Level Washington Center
03:19PM 37.3583 -78.0139 32° Northeast 369 425 23,000  Level Washington Center
03:20PM 37.4500 -77.9097 42° Northeast 376 433 23,000  Level Washington Center
03:21PM 37.5350 -77.8283 37° Northeast 383 441 23,000  Level Washington Center
03:22PM 37.6342 -77.7683 26° Northeast 388 447 23,000 -780 Level Washington Center
03:23PM 37.7311 -77.7081 26° Northeast 388 447 21,500 -2,580 Descending Washington Center
03:24PM 37.8281 -77.6556 23° Northeast 383 441 17,900 -3,180 Descending Washington Center
03:25PM 37.9186 -77.5975 27° Northeast 383 441 15,300 -2,700 Descending Washington Center
03:26PM 38.0031 -77.5497 24° Northeast 356 410 12,600 -2,040 Descending Washington Center
03:27PM 38.0767 -77.5094 23° Northeast 330 380 11,300 -1,320 Descending Washington Center
03:28PM 38.1567 -77.4614 25° Northeast 313 360 10,000 -660 Descending Washington Center
03:29PM 38.2367 -77.4158 24° Northeast 313 360 10,000 -840 Level Washington Center
03:30PM 38.3164 -77.3675 25° Northeast 313 360 8,400 -1,380 Descending Washington Center
03:31PM 38.3981 -77.3561 North 307 353 7,300 -1,080 Descending Washington Center
03:32PM 38.4833 -77.3608 358° North 293 337 6,300 -960 Descending Washington Center
03:33PM 38.5625 -77.3653 357° North 293 337 5,400 -840 Descending Washington Center
03:34PM 38.6500 -77.3667 359° North 287 330 4,700 -780 Descending Potomac TRACON
03:35PM 38.7333 -77.3500 North 286 329 4,000 -360 Descending Potomac TRACON
03:36PM 38.8167 -77.3500 360° North 287 330 4,000  Level Potomac TRACON
03:37PM 38.8833 -77.3500 360° North 285 328 4,000 -120 Level Potomac TRACON
03:38PM 38.9667 -77.3500 360° North 283 326 3,800 -540 Descending Potomac TRACON
03:39PM 39.0500 -77.3500 360° North 262 302 3,000 -420 Descending Potomac TRACON
03:40PM 39.1167 -77.3500 360° North 222 255 3,000  Level Potomac TRACON
03:41PM 39.1167 -77.4000 270° West 208 239 3,000 -180 Level Potomac TRACON
03:42PM 39.0833 -77.4333 218° Southwest 157 181 2,700 -300 Descending Potomac TRACON